createdAt,value
2022-10-13T00:00:57.147Z,13.90
2022-10-13T00:03:25.164Z,13.90
2022-10-13T00:05:53.244Z,13.90
2022-10-13T00:08:24.450Z,13.90
2022-10-13T00:10:52.733Z,13.90
2022-10-13T00:13:21.619Z,13.90
2022-10-13T00:15:50.234Z,13.90
2022-10-13T00:18:19.785Z,13.90
2022-10-13T00:20:50.120Z,13.80
2022-10-13T00:23:19.251Z,13.90
2022-10-13T00:25:48.989Z,13.90
2022-10-13T00:28:19.589Z,13.90
2022-10-13T00:30:48.712Z,13.90
2022-10-13T00:33:16.739Z,13.90
2022-10-13T00:35:48.608Z,13.90
2022-10-13T00:38:17.795Z,13.90
2022-10-13T00:40:47.455Z,13.90
2022-10-13T00:43:18.746Z,13.90
2022-10-13T00:45:49.884Z,13.90
2022-10-13T00:48:19.856Z,13.90
2022-10-13T00:50:52.028Z,14.00
2022-10-13T00:53:25.576Z,14.00
2022-10-13T00:55:54.452Z,14.00
2022-10-13T00:58:24.321Z,14.00
2022-10-13T01:00:54.253Z,14.00
2022-10-13T01:03:23.397Z,14.00
2022-10-13T01:05:56.629Z,14.00
2022-10-13T01:08:26.974Z,14.00
2022-10-13T01:11:05.207Z,13.90
2022-10-13T01:13:39.435Z,14.00
2022-10-13T01:16:14.203Z,14.00
2022-10-13T01:18:53.542Z,14.00
2022-10-13T01:21:28.781Z,14.00
2022-10-13T01:24:21.821Z,14.00
2022-10-13T01:27:15.274Z,14.00
2022-10-13T01:30:10.565Z,14.00
2022-10-13T01:33:00.655Z,14.00
2022-10-13T01:35:37.934Z,14.00
2022-10-13T01:38:10.289Z,14.00
2022-10-13T01:40:45.945Z,14.10
2022-10-13T01:43:19.217Z,14.10
2022-10-13T01:45:55.330Z,14.10
2022-10-13T01:48:24.135Z,14.10
2022-10-13T01:50:53.279Z,14.10
2022-10-13T01:53:22.525Z,14.20
2022-10-13T01:55:52.418Z,14.20
2022-10-13T01:58:20.426Z,14.20
2022-10-13T02:01:01.357Z,14.20
2022-10-13T02:03:43.965Z,14.20
2022-10-13T02:06:22.052Z,14.30
2022-10-13T02:08:57.916Z,14.20
2022-10-13T02:11:26.138Z,14.20
2022-10-13T02:14:01.103Z,14.30
2022-10-13T02:16:36.156Z,14.10
2022-10-13T02:19:06.579Z,13.80
2022-10-13T02:21:35.259Z,13.80
2022-10-13T02:24:03.972Z,13.80
2022-10-13T02:26:32.745Z,13.80
2022-10-13T02:29:01.501Z,14.00
2022-10-13T02:31:30.784Z,13.90
2022-10-13T02:33:58.818Z,13.90
2022-10-13T02:36:26.885Z,13.90
2022-10-13T02:38:54.782Z,13.90
2022-10-13T02:41:22.781Z,13.80
2022-10-13T02:43:50.732Z,13.70
2022-10-13T02:46:18.729Z,13.70
2022-10-13T02:48:48.077Z,13.80
2022-10-13T02:51:16.173Z,13.70
2022-10-13T02:53:44.285Z,13.70
2022-10-13T02:56:12.360Z,13.70
2022-10-13T02:58:40.430Z,13.70
2022-10-13T03:01:09.747Z,13.70
2022-10-13T03:03:38.204Z,13.70
2022-10-13T03:06:08.786Z,13.60
2022-10-13T03:08:37.161Z,13.50
2022-10-13T03:11:05.197Z,13.40
2022-10-13T03:13:33.557Z,13.40
2022-10-13T03:16:01.504Z,13.40
2022-10-13T03:18:29.523Z,13.40
2022-10-13T03:20:59.226Z,13.40
2022-10-13T03:23:29.114Z,13.40
2022-10-13T03:25:57.185Z,13.50
2022-10-13T03:28:25.292Z,13.50
2022-10-13T03:31:01.798Z,13.60
2022-10-13T03:33:29.981Z,13.60
2022-10-13T03:36:00.097Z,13.60
2022-10-13T03:38:30.046Z,13.70
2022-10-13T03:40:58.024Z,13.70
2022-10-13T03:43:26.157Z,13.60
2022-10-13T03:45:57.742Z,13.60
2022-10-13T03:48:25.987Z,13.60
2022-10-13T03:50:54.140Z,13.70
2022-10-13T03:53:22.667Z,13.80
2022-10-13T03:55:53.352Z,13.90
2022-10-13T03:58:22.413Z,14.00
2022-10-13T04:00:51.201Z,14.00
2022-10-13T04:03:19.629Z,14.00
2022-10-13T04:05:47.920Z,14.10
2022-10-13T04:08:16.108Z,14.00
2022-10-13T04:10:44.077Z,13.80
2022-10-13T04:13:13.469Z,13.80
2022-10-13T04:15:41.843Z,13.80
2022-10-13T04:18:10.146Z,13.70
2022-10-13T04:20:39.921Z,13.60
2022-10-13T04:23:08.392Z,13.50
2022-10-13T04:25:37.239Z,13.50
2022-10-13T04:28:05.776Z,13.40
2022-10-13T04:30:36.100Z,13.40
2022-10-13T04:33:04.330Z,13.40
2022-10-13T04:35:32.461Z,13.40
2022-10-13T04:38:00.529Z,13.30
2022-10-13T04:40:28.495Z,13.30
2022-10-13T04:42:56.521Z,13.30
2022-10-13T04:45:24.489Z,13.40
2022-10-13T04:47:53.818Z,13.50
2022-10-13T04:50:21.912Z,13.50
2022-10-13T04:52:49.850Z,13.40
2022-10-13T04:55:18.042Z,13.30
2022-10-13T04:57:46.037Z,13.20
2022-10-13T05:00:14.926Z,13.20
2022-10-13T05:02:42.936Z,13.10
2022-10-13T05:05:12.680Z,13.00
2022-10-13T05:07:40.675Z,13.00
2022-10-13T05:10:09.133Z,12.80
2022-10-13T05:12:37.328Z,12.70
2022-10-13T05:15:06.223Z,12.70
2022-10-13T05:17:35.500Z,12.60
2022-10-13T05:20:06.193Z,12.70
2022-10-13T05:22:35.514Z,12.70
2022-10-13T05:25:03.600Z,12.60
2022-10-13T05:27:31.589Z,12.50
2022-10-13T05:29:59.533Z,12.50
2022-10-13T05:32:27.507Z,12.50
2022-10-13T05:34:55.440Z,12.50
2022-10-13T05:37:23.544Z,12.40
2022-10-13T05:39:53.070Z,12.30
2022-10-13T05:42:21.449Z,12.30
2022-10-13T05:44:49.830Z,12.40
2022-10-13T05:47:17.867Z,12.40
2022-10-13T05:49:45.928Z,12.40
2022-10-13T05:52:14.201Z,12.40
2022-10-13T05:54:46.797Z,12.50
2022-10-13T05:57:19.558Z,12.50
2022-10-13T05:59:52.267Z,12.70
2022-10-13T06:02:23.283Z,12.60
2022-10-13T06:04:53.966Z,12.80
2022-10-13T06:07:22.156Z,12.60
2022-10-13T06:09:50.847Z,12.70
2022-10-13T06:12:20.516Z,12.80
2022-10-13T06:14:48.959Z,12.90
2022-10-13T06:17:16.949Z,13.00
2022-10-13T06:19:46.075Z,13.10
2022-10-13T06:22:14.113Z,13.00
2022-10-13T06:24:42.085Z,12.90
2022-10-13T06:27:10.353Z,13.00
2022-10-13T06:29:39.858Z,13.10
2022-10-13T06:32:07.911Z,13.20
2022-10-13T06:34:35.931Z,13.30
2022-10-13T06:37:03.914Z,13.30
2022-10-13T06:39:31.974Z,13.30
2022-10-13T06:41:59.978Z,13.40
2022-10-13T06:44:27.953Z,13.40
2022-10-13T06:46:57.386Z,13.40
2022-10-13T06:49:25.877Z,13.40
2022-10-13T06:51:53.969Z,13.40
2022-10-13T06:54:22.260Z,13.40
2022-10-13T06:56:51.242Z,13.50
2022-10-13T06:59:19.237Z,13.40
2022-10-13T07:01:48.622Z,13.40
2022-10-13T07:04:18.068Z,13.40
2022-10-13T07:06:46.155Z,13.30
2022-10-13T07:09:14.261Z,13.00
2022-10-13T07:11:45.270Z,13.00
2022-10-13T07:14:13.540Z,12.90
2022-10-13T07:16:44.787Z,12.80
2022-10-13T07:19:12.711Z,12.80
2022-10-13T07:21:42.024Z,12.90
2022-10-13T07:24:12.305Z,12.90
2022-10-13T07:26:40.446Z,12.90
2022-10-13T07:29:08.956Z,12.90
2022-10-13T07:31:36.940Z,12.80
2022-10-13T07:34:10.372Z,12.70
2022-10-13T07:36:40.708Z,12.80
2022-10-13T07:39:10.866Z,12.90
2022-10-13T07:41:38.862Z,13.00
2022-10-13T07:44:06.871Z,13.10
2022-10-13T07:46:35.114Z,13.20
2022-10-13T07:49:03.190Z,13.30
2022-10-13T07:51:31.152Z,13.40
2022-10-13T07:53:59.142Z,13.40
2022-10-13T07:56:28.516Z,13.50
2022-10-13T07:58:57.596Z,13.50
2022-10-13T08:01:25.821Z,13.60
2022-10-13T08:03:56.772Z,13.60
2022-10-13T08:06:24.929Z,13.70
2022-10-13T08:08:53.603Z,13.70
2022-10-13T08:11:22.092Z,13.80
2022-10-13T08:13:53.014Z,13.80
2022-10-13T08:16:21.759Z,13.90
2022-10-13T08:18:50.485Z,13.90
2022-10-13T08:24:08.765Z,14.00
2022-10-13T08:26:36.749Z,14.10
2022-10-13T08:29:23.473Z,14.10
2022-10-13T08:31:52.550Z,14.20
2022-10-13T08:34:21.265Z,14.20
2022-10-13T08:36:54.922Z,14.30
2022-10-13T08:39:23.809Z,14.30
2022-10-13T08:41:52.319Z,14.40
2022-10-13T08:45:02.748Z,14.40
2022-10-13T08:47:25.505Z,14.50
2022-10-13T08:49:59.103Z,14.50
2022-10-13T08:52:30.610Z,14.60
2022-10-13T08:55:01.439Z,14.60
2022-10-13T08:57:29.444Z,14.60
2022-10-13T08:59:58.821Z,14.70
2022-10-13T09:02:32.411Z,14.80
2022-10-13T09:05:03.381Z,14.80
2022-10-13T09:07:36.216Z,14.90
2022-10-13T09:10:05.476Z,15.00
2022-10-13T09:12:34.016Z,15.00
2022-10-13T09:15:06.011Z,15.10
2022-10-13T09:17:35.772Z,15.10
2022-10-13T09:20:07.735Z,15.20
2022-10-13T09:22:37.169Z,15.30
2022-10-13T09:25:21.283Z,15.40
2022-10-13T09:27:50.990Z,15.60
2022-10-13T09:30:31.150Z,15.70
2022-10-13T09:33:27.026Z,15.80
2022-10-13T09:36:14.459Z,15.80
2022-10-13T09:39:04.451Z,15.90
2022-10-13T09:41:32.872Z,15.90
2022-10-13T09:44:10.834Z,16.00
2022-10-13T09:46:49.544Z,16.10
2022-10-13T09:49:35.641Z,16.20
2022-10-13T09:52:05.991Z,16.20
2022-10-13T09:54:46.683Z,16.20
2022-10-13T09:57:26.510Z,16.30
2022-10-13T09:59:59.940Z,16.40
2022-10-13T10:02:36.839Z,16.40
2022-10-13T10:05:15.112Z,16.40
2022-10-13T10:07:43.460Z,16.40
2022-10-13T10:10:26.716Z,16.40
2022-10-13T10:12:55.241Z,16.40
2022-10-13T10:15:31.318Z,16.30
2022-10-13T10:18:05.338Z,16.40
2022-10-13T10:20:59.981Z,16.40
2022-10-13T10:23:40.684Z,16.40
2022-10-13T10:26:18.179Z,16.50
2022-10-13T10:29:14.556Z,16.60
2022-10-13T10:32:08.866Z,16.70
2022-10-13T10:34:43.576Z,16.70
2022-10-13T10:37:21.440Z,16.70
2022-10-13T10:40:03.643Z,16.90
2022-10-13T10:42:59.566Z,16.90
2022-10-13T10:45:29.537Z,16.90
2022-10-13T10:48:01.515Z,17.00
2022-10-13T10:50:32.067Z,17.00
2022-10-13T10:53:06.120Z,17.00
2022-10-13T10:55:41.003Z,17.10
2022-10-13T10:58:23.563Z,17.10
2022-10-13T11:00:59.898Z,17.20
2022-10-13T11:03:41.328Z,17.30
2022-10-13T11:06:34.201Z,17.30
2022-10-13T11:09:03.013Z,17.40
2022-10-13T11:11:44.251Z,17.40
2022-10-13T11:14:32.284Z,17.50
2022-10-13T11:17:11.007Z,17.60
2022-10-13T11:19:40.026Z,17.60
2022-10-13T11:22:22.130Z,17.70
2022-10-13T11:24:59.717Z,17.70
2022-10-13T11:27:39.916Z,17.70
2022-10-13T11:30:50.329Z,17.80
2022-10-13T11:33:36.427Z,17.90
2022-10-13T11:36:42.538Z,17.90
2022-10-13T11:39:41.319Z,18.00
2022-10-13T11:42:27.463Z,18.10
2022-10-13T11:44:57.984Z,18.20
2022-10-13T11:47:54.847Z,18.30
2022-10-13T11:50:29.920Z,18.30
2022-10-13T11:53:08.041Z,18.30
2022-10-13T11:55:45.028Z,18.40
2022-10-13T11:58:17.513Z,18.40
2022-10-13T12:00:59.132Z,18.40
2022-10-13T12:03:30.837Z,18.50
2022-10-13T12:06:05.575Z,18.60
2022-10-13T12:08:36.080Z,18.60
2022-10-13T12:11:08.387Z,18.70
2022-10-13T12:13:37.958Z,18.80
2022-10-13T12:16:08.483Z,18.80
2022-10-13T12:18:39.220Z,18.80
2022-10-13T12:21:12.792Z,18.80
2022-10-13T12:23:41.453Z,18.80
2022-10-13T12:26:14.972Z,18.90
2022-10-13T12:28:50.297Z,18.90
2022-10-13T12:31:22.040Z,18.90
2022-10-13T12:33:55.828Z,18.90
2022-10-13T12:36:30.276Z,18.90
2022-10-13T12:39:01.973Z,18.80
2022-10-13T12:41:32.974Z,18.90
2022-10-13T12:44:04.033Z,18.90
2022-10-13T12:46:38.757Z,18.90
2022-10-13T12:49:08.795Z,19.00
2022-10-13T12:51:39.461Z,19.00
2022-10-13T12:54:09.539Z,19.10
2022-10-13T12:56:37.662Z,19.10
2022-10-13T12:59:05.738Z,19.10
2022-10-13T13:01:35.141Z,19.20
2022-10-13T13:04:17.703Z,19.10
2022-10-13T13:06:56.503Z,19.20
2022-10-13T13:09:29.545Z,19.20
2022-10-13T13:12:20.928Z,19.30
2022-10-13T13:14:49.811Z,19.30
2022-10-13T13:17:52.800Z,19.30
2022-10-13T13:20:25.997Z,19.30
2022-10-13T13:22:55.666Z,19.30
2022-10-13T13:25:24.042Z,19.30
2022-10-13T13:27:52.913Z,19.30
2022-10-13T13:30:22.537Z,19.30
2022-10-13T13:32:50.684Z,19.30
2022-10-13T13:35:19.003Z,19.30
2022-10-13T13:37:52.478Z,19.20
2022-10-13T13:40:23.691Z,19.20
2022-10-13T13:42:51.939Z,19.20
2022-10-13T13:45:21.715Z,19.20
2022-10-13T13:47:49.923Z,19.20
2022-10-13T13:50:20.441Z,19.20
2022-10-13T13:52:48.566Z,19.30
2022-10-13T13:55:16.892Z,19.30
2022-10-13T13:57:46.949Z,19.30
2022-10-13T14:00:17.392Z,19.40
2022-10-13T14:02:46.131Z,19.40
2022-10-13T14:05:14.555Z,19.50
2022-10-13T14:07:42.678Z,19.50
2022-10-13T14:10:11.630Z,19.60
2022-10-13T14:12:39.846Z,19.60
2022-10-13T14:15:10.546Z,19.60
2022-10-13T14:17:38.629Z,19.60
2022-10-13T14:20:07.705Z,19.60
2022-10-13T14:22:39.141Z,19.60
2022-10-13T14:25:08.347Z,19.60
2022-10-13T14:27:37.053Z,19.50
2022-10-13T14:30:05.437Z,19.40
2022-10-13T14:32:35.260Z,19.40
2022-10-13T14:35:03.594Z,19.40
2022-10-13T14:37:33.635Z,19.40
2022-10-13T14:40:02.058Z,19.40
2022-10-13T14:42:30.027Z,19.30
2022-10-13T14:44:57.978Z,19.30
2022-10-13T14:47:26.002Z,19.30
2022-10-13T14:49:57.744Z,19.20
2022-10-13T14:52:25.699Z,19.20
2022-10-13T14:54:53.678Z,19.20
2022-10-13T14:57:22.068Z,19.10
2022-10-13T14:59:50.175Z,19.20
2022-10-13T15:02:18.365Z,19.20
2022-10-13T15:04:46.309Z,19.10
2022-10-13T15:07:15.765Z,19.10
2022-10-13T15:09:52.819Z,19.00
2022-10-13T15:12:21.948Z,19.00
2022-10-13T15:14:50.145Z,19.00
2022-10-13T15:17:18.152Z,18.90
2022-10-13T15:19:46.253Z,19.00
2022-10-13T15:22:16.520Z,18.90
2022-10-13T15:24:48.479Z,18.90
2022-10-13T15:27:23.390Z,18.90
2022-10-13T15:29:51.471Z,18.80
2022-10-13T15:32:21.075Z,18.80
2022-10-13T15:34:49.341Z,18.80
2022-10-13T15:37:18.724Z,18.80
2022-10-13T15:39:46.702Z,18.70
2022-10-13T15:42:14.676Z,18.70
2022-10-13T15:45:09.216Z,18.70
2022-10-13T15:47:30.827Z,18.60
2022-10-13T15:49:58.786Z,18.60
2022-10-13T15:52:33.732Z,18.50
2022-10-13T15:55:02.908Z,18.50
2022-10-13T15:57:31.980Z,18.50
2022-10-13T15:59:59.928Z,18.50
2022-10-13T16:02:28.002Z,18.40
2022-10-13T16:04:56.849Z,18.40
2022-10-13T16:07:24.882Z,18.40
2022-10-13T16:09:54.244Z,18.30
2022-10-13T16:12:24.254Z,18.30
2022-10-13T16:14:52.401Z,18.20
2022-10-13T16:17:20.882Z,18.20
2022-10-13T16:19:49.044Z,18.20
2022-10-13T16:22:17.122Z,18.10
2022-10-13T16:24:45.192Z,18.10
2022-10-13T16:27:14.489Z,18.00
2022-10-13T16:29:42.468Z,18.00
2022-10-13T16:32:10.714Z,18.00
2022-10-13T16:34:38.745Z,17.90
2022-10-13T16:37:06.947Z,17.90
2022-10-13T16:39:37.527Z,17.80
2022-10-13T16:42:07.993Z,17.80
2022-10-13T16:44:37.410Z,17.70
2022-10-13T16:47:06.457Z,17.70
2022-10-13T16:49:35.029Z,17.60
2022-10-13T16:52:03.185Z,17.60
2022-10-13T16:54:32.797Z,17.50
2022-10-13T16:57:00.859Z,17.40
2022-10-13T16:59:29.103Z,17.40
2022-10-13T17:01:59.352Z,17.30
2022-10-13T17:04:27.612Z,17.30
2022-10-13T17:06:55.711Z,17.30
2022-10-13T17:09:23.619Z,17.30
2022-10-13T17:11:51.624Z,17.20
2022-10-13T17:14:20.221Z,17.10
2022-10-13T17:16:48.227Z,17.10
2022-10-13T17:19:17.502Z,17.10
2022-10-13T17:21:45.656Z,17.00
2022-10-13T17:24:13.847Z,17.00
2022-10-13T17:26:41.858Z,16.90
2022-10-13T17:29:09.815Z,16.90
2022-10-13T17:31:37.787Z,16.90
2022-10-13T17:34:06.271Z,16.80
2022-10-13T17:36:36.251Z,16.80
2022-10-13T17:39:06.861Z,16.70
2022-10-13T17:41:35.383Z,16.70
2022-10-13T17:44:03.824Z,16.70
2022-10-13T17:46:38.241Z,16.70
2022-10-13T17:49:07.868Z,16.60
2022-10-13T17:51:37.198Z,16.60
2022-10-13T17:54:05.746Z,16.60
2022-10-13T17:56:33.811Z,16.60
2022-10-13T17:59:02.901Z,16.50
2022-10-13T18:01:32.640Z,16.50
2022-10-13T18:04:02.499Z,16.50
2022-10-13T18:06:37.699Z,16.40
2022-10-13T18:09:09.266Z,16.40
2022-10-13T18:11:38.598Z,16.40
2022-10-13T18:14:07.387Z,16.30
2022-10-13T18:16:36.734Z,16.30
2022-10-13T18:19:05.220Z,16.20
2022-10-13T18:21:33.434Z,16.20
2022-10-13T18:24:03.347Z,16.20
2022-10-13T18:26:35.804Z,16.20
2022-10-13T18:29:05.781Z,16.10
2022-10-13T18:31:35.793Z,16.10
2022-10-13T18:34:05.240Z,16.10
2022-10-13T18:36:35.400Z,15.90
2022-10-13T18:39:05.793Z,15.70
2022-10-13T18:41:36.896Z,15.80
2022-10-13T18:44:05.572Z,15.90
2022-10-13T18:46:34.552Z,15.90
2022-10-13T18:49:05.190Z,15.90
2022-10-13T18:51:36.219Z,15.90
2022-10-13T18:54:05.496Z,15.80
2022-10-13T18:56:37.155Z,15.80
2022-10-13T18:59:06.995Z,15.80
2022-10-13T19:01:36.400Z,15.80
2022-10-13T19:04:05.088Z,15.80
2022-10-13T19:06:33.591Z,15.80
2022-10-13T19:09:03.717Z,15.70
2022-10-13T19:11:34.223Z,15.60
2022-10-13T19:14:07.006Z,15.60
2022-10-13T19:16:38.763Z,15.60
2022-10-13T19:19:08.015Z,15.60
2022-10-13T19:21:36.487Z,15.60
2022-10-13T19:24:04.878Z,15.60
2022-10-13T19:26:35.809Z,15.60
2022-10-13T19:29:06.674Z,15.60
2022-10-13T19:31:39.394Z,15.60
2022-10-13T19:34:07.514Z,15.50
2022-10-13T19:36:37.505Z,15.50
2022-10-13T19:39:11.813Z,15.50
2022-10-13T19:41:41.449Z,15.50
2022-10-13T19:44:09.398Z,15.50
2022-10-13T19:46:40.368Z,15.50
2022-10-13T19:49:08.366Z,15.50
2022-10-13T19:51:36.443Z,15.50
2022-10-13T19:54:07.488Z,15.50
2022-10-13T19:56:37.245Z,15.50
2022-10-13T19:59:08.312Z,15.50
2022-10-13T20:01:39.957Z,15.50
2022-10-13T20:04:08.671Z,15.50
2022-10-13T20:06:37.309Z,15.50
2022-10-13T20:09:05.894Z,15.40
2022-10-13T20:11:33.888Z,15.40
2022-10-13T20:14:01.857Z,15.40
2022-10-13T20:16:32.185Z,15.40
2022-10-13T20:19:02.144Z,15.40
2022-10-13T20:21:30.491Z,15.40
2022-10-13T20:23:58.829Z,15.40
2022-10-13T20:26:27.821Z,15.40
2022-10-13T20:28:58.374Z,15.40
2022-10-13T20:31:28.047Z,15.40
2022-10-13T20:34:02.287Z,15.30
2022-10-13T20:36:38.307Z,15.20
2022-10-13T20:39:11.406Z,15.10
2022-10-13T20:41:40.904Z,15.10
2022-10-13T20:44:13.638Z,15.10
2022-10-13T20:46:42.441Z,15.20
2022-10-13T20:49:13.069Z,15.20
2022-10-13T20:51:41.683Z,15.20
2022-10-13T20:54:09.805Z,15.00
2022-10-13T20:56:37.857Z,15.00
2022-10-13T20:59:06.991Z,15.00
2022-10-13T21:01:35.093Z,15.10
2022-10-13T21:04:03.049Z,15.10
2022-10-13T21:06:32.903Z,15.20
2022-10-13T21:09:00.877Z,15.10
2022-10-13T21:11:28.917Z,15.20
2022-10-13T21:13:57.532Z,15.20
2022-10-13T21:16:27.449Z,15.20
2022-10-13T21:18:58.310Z,15.20
2022-10-13T21:21:29.334Z,15.20
2022-10-13T21:24:00.884Z,15.20
2022-10-13T21:26:30.485Z,15.10
2022-10-13T21:28:59.099Z,15.10
2022-10-13T21:31:28.457Z,15.10
2022-10-13T21:33:56.891Z,15.10
2022-10-13T21:36:26.298Z,15.10
2022-10-13T21:38:56.495Z,15.10
2022-10-13T21:41:26.541Z,15.10
2022-10-13T21:43:55.445Z,15.10
2022-10-13T21:46:25.329Z,15.00
2022-10-13T21:48:57.715Z,15.00
2022-10-13T21:51:29.966Z,15.00
2022-10-13T21:54:02.298Z,15.00
2022-10-13T21:56:35.006Z,15.00
2022-10-13T21:59:04.443Z,15.00
2022-10-13T22:01:32.904Z,15.00
2022-10-13T22:04:02.883Z,15.00
2022-10-13T22:06:34.667Z,15.00
2022-10-13T22:09:07.359Z,14.90
2022-10-13T22:11:56.356Z,14.90
2022-10-13T22:14:41.488Z,14.90
2022-10-13T22:17:12.423Z,14.90
2022-10-13T22:19:40.442Z,14.90
2022-10-13T22:22:08.396Z,14.90
2022-10-13T22:24:36.384Z,14.90
2022-10-13T22:27:05.725Z,14.90
2022-10-13T22:29:33.687Z,14.90
2022-10-13T22:32:01.727Z,14.90
2022-10-13T22:34:29.696Z,14.90
2022-10-13T22:36:57.877Z,14.90
2022-10-13T22:39:25.827Z,14.80
2022-10-13T22:41:53.940Z,14.90
2022-10-13T22:44:23.288Z,14.80
2022-10-13T22:46:51.699Z,14.80
2022-10-13T22:49:19.631Z,14.80
2022-10-13T22:51:48.032Z,14.80
2022-10-13T22:54:16.094Z,14.80
2022-10-13T22:56:45.079Z,14.80
2022-10-13T22:59:14.003Z,14.80
2022-10-13T23:01:43.342Z,14.80
2022-10-13T23:04:11.359Z,14.80
2022-10-13T23:06:39.516Z,14.70
2022-10-13T23:09:09.217Z,14.70
2022-10-13T23:11:37.578Z,14.70
2022-10-13T23:14:05.676Z,14.70
2022-10-13T23:16:33.765Z,14.70
2022-10-13T23:19:03.617Z,14.70
2022-10-13T23:21:31.968Z,14.70
2022-10-13T23:24:02.086Z,14.60
2022-10-13T23:26:31.116Z,14.60
2022-10-13T23:28:59.673Z,14.70
2022-10-13T23:31:29.169Z,14.70
2022-10-13T23:33:57.183Z,14.70
2022-10-13T23:36:28.770Z,14.70
2022-10-13T23:38:58.251Z,14.50
2022-10-13T23:41:26.943Z,14.30
2022-10-13T23:43:55.148Z,14.20
2022-10-13T23:46:23.110Z,14.30
2022-10-13T23:48:51.109Z,14.40
2022-10-13T23:51:21.480Z,14.50
2022-10-13T23:53:50.981Z,14.50
2022-10-13T23:56:19.362Z,14.50
2022-10-13T23:58:47.968Z,14.50
